sensor_id;sensor_type;location;lat;lon;timestamp;P1;durP1;ratioP1;P2;durP2;ratioP2
59207;SDS011;44977;53.132;6.408;2023-03-17T00:04:41;9.23;;;4.50;;
59207;SDS011;44977;53.132;6.408;2023-03-17T00:09:42;9.35;;;4.60;;
59207;SDS011;44977;53.132;6.408;2023-03-17T00:14:43;7.45;;;4.55;;
59207;SDS011;44977;53.132;6.408;2023-03-17T00:19:45;8.25;;;4.57;;
59207;SDS011;44977;53.132;6.408;2023-03-17T00:24:46;8.57;;;4.93;;
59207;SDS011;44977;53.132;6.408;2023-03-17T00:29:47;9.90;;;4.65;;
59207;SDS011;44977;53.132;6.408;2023-03-17T00:34:48;8.55;;;4.60;;
59207;SDS011;44977;53.132;6.408;2023-03-17T00:39:48;9.02;;;4.82;;
59207;SDS011;44977;53.132;6.408;2023-03-17T00:44:50;9.05;;;4.47;;
59207;SDS011;44977;53.132;6.408;2023-03-17T00:49:51;8.40;;;4.88;;
59207;SDS011;44977;53.132;6.408;2023-03-17T00:54:51;8.73;;;4.93;;
59207;SDS011;44977;53.132;6.408;2023-03-17T00:59:52;11.02;;;4.47;;
59207;SDS011;44977;53.132;6.408;2023-03-17T01:04:53;8.88;;;4.63;;
59207;SDS011;44977;53.132;6.408;2023-03-17T01:09:53;8.95;;;4.70;;
59207;SDS011;44977;53.132;6.408;2023-03-17T01:14:54;8.73;;;4.78;;
59207;SDS011;44977;53.132;6.408;2023-03-17T01:19:55;7.80;;;4.40;;
59207;SDS011;44977;53.132;6.408;2023-03-17T01:24:56;9.45;;;4.38;;
59207;SDS011;44977;53.132;6.408;2023-03-17T01:29:57;8.38;;;4.15;;
59207;SDS011;44977;53.132;6.408;2023-03-17T01:34:58;8.88;;;4.35;;
59207;SDS011;44977;53.132;6.408;2023-03-17T01:39:59;8.00;;;4.30;;
59207;SDS011;44977;53.132;6.408;2023-03-17T01:45:03;8.32;;;4.47;;
59207;SDS011;44977;53.132;6.408;2023-03-17T01:50:07;8.05;;;4.38;;
59207;SDS011;44977;53.132;6.408;2023-03-17T01:55:09;8.52;;;4.50;;
59207;SDS011;44977;53.132;6.408;2023-03-17T02:00:15;9.27;;;4.40;;
59207;SDS011;44977;53.132;6.408;2023-03-17T02:05:19;7.43;;;4.32;;
59207;SDS011;44977;53.132;6.408;2023-03-17T02:10:24;7.60;;;4.53;;
59207;SDS011;44977;53.132;6.408;2023-03-17T02:15:48;8.90;;;4.85;;
59207;SDS011;44977;53.132;6.408;2023-03-17T02:25:52;8.88;;;4.68;;
59207;SDS011;44977;53.132;6.408;2023-03-17T02:30:53;8.30;;;4.70;;
59207;SDS011;44977;53.132;6.408;2023-03-17T02:35:54;8.10;;;4.30;;
59207;SDS011;44977;53.132;6.408;2023-03-17T02:40:56;8.30;;;4.57;;
59207;SDS011;44977;53.132;6.408;2023-03-17T02:45:56;8.40;;;4.63;;
59207;SDS011;44977;53.132;6.408;2023-03-17T02:50:57;8.70;;;4.70;;
59207;SDS011;44977;53.132;6.408;2023-03-17T02:55:58;8.75;;;4.70;;
59207;SDS011;44977;53.132;6.408;2023-03-17T03:00:58;8.20;;;4.57;;
59207;SDS011;44977;53.132;6.408;2023-03-17T03:05:59;9.38;;;4.57;;
59207;SDS011;44977;53.132;6.408;2023-03-17T03:11:01;7.78;;;4.38;;
59207;SDS011;44977;53.132;6.408;2023-03-17T03:16:02;7.65;;;4.20;;
59207;SDS011;44977;53.132;6.408;2023-03-17T03:21:03;10.02;;;4.68;;
59207;SDS011;44977;53.132;6.408;2023-03-17T03:26:05;7.72;;;4.47;;
59207;SDS011;44977;53.132;6.408;2023-03-17T03:31:06;8.82;;;4.93;;
59207;SDS011;44977;53.132;6.408;2023-03-17T03:36:07;7.20;;;4.20;;
59207;SDS011;44977;53.132;6.408;2023-03-17T03:41:08;9.13;;;4.60;;
59207;SDS011;44977;53.132;6.408;2023-03-17T03:46:10;8.43;;;4.57;;
59207;SDS011;44977;53.132;6.408;2023-03-17T03:51:10;8.43;;;4.68;;
59207;SDS011;44977;53.132;6.408;2023-03-17T03:56:11;8.85;;;4.50;;
59207;SDS011;44977;53.132;6.408;2023-03-17T04:01:12;8.85;;;4.65;;
59207;SDS011;44977;53.132;6.408;2023-03-17T04:06:13;8.60;;;4.43;;
59207;SDS011;44977;53.132;6.408;2023-03-17T04:11:13;7.63;;;3.90;;
59207;SDS011;44977;53.132;6.408;2023-03-17T04:16:14;9.00;;;4.70;;
59207;SDS011;44977;53.132;6.408;2023-03-17T04:21:15;7.78;;;4.43;;
59207;SDS011;44977;53.132;6.408;2023-03-17T04:26:17;7.95;;;4.65;;
59207;SDS011;44977;53.132;6.408;2023-03-17T04:31:18;7.95;;;4.20;;
59207;SDS011;44977;53.132;6.408;2023-03-17T04:36:19;8.85;;;4.40;;
59207;SDS011;44977;53.132;6.408;2023-03-17T04:41:22;10.07;;;4.82;;
59207;SDS011;44977;53.132;6.408;2023-03-17T04:46:22;8.38;;;4.72;;
59207;SDS011;44977;53.132;6.408;2023-03-17T04:51:23;8.50;;;4.50;;
59207;SDS011;44977;53.132;6.408;2023-03-17T04:56:24;8.05;;;4.40;;
59207;SDS011;44977;53.132;6.408;2023-03-17T05:01:25;10.27;;;5.00;;
59207;SDS011;44977;53.132;6.408;2023-03-17T05:06:26;8.55;;;4.53;;
59207;SDS011;44977;53.132;6.408;2023-03-17T05:11:26;11.30;;;5.20;;
59207;SDS011;44977;53.132;6.408;2023-03-17T05:16:27;9.10;;;4.60;;
59207;SDS011;44977;53.132;6.408;2023-03-17T05:21:28;8.48;;;4.57;;
59207;SDS011;44977;53.132;6.408;2023-03-17T05:26:28;8.05;;;4.35;;
59207;SDS011;44977;53.132;6.408;2023-03-17T05:31:29;9.23;;;4.75;;
59207;SDS011;44977;53.132;6.408;2023-03-17T05:36:30;8.77;;;5.00;;
59207;SDS011;44977;53.132;6.408;2023-03-17T05:41:32;8.30;;;4.43;;
59207;SDS011;44977;53.132;6.408;2023-03-17T05:46:33;10.02;;;4.63;;
59207;SDS011;44977;53.132;6.408;2023-03-17T05:51:33;9.77;;;4.78;;
59207;SDS011;44977;53.132;6.408;2023-03-17T05:56:34;8.60;;;4.50;;
59207;SDS011;44977;53.132;6.408;2023-03-17T06:01:35;9.18;;;4.82;;
59207;SDS011;44977;53.132;6.408;2023-03-17T06:06:36;8.80;;;5.00;;
59207;SDS011;44977;53.132;6.408;2023-03-17T06:11:37;7.45;;;4.70;;
59207;SDS011;44977;53.132;6.408;2023-03-17T06:16:38;9.10;;;5.00;;
59207;SDS011;44977;53.132;6.408;2023-03-17T06:21:39;8.20;;;4.85;;
59207;SDS011;44977;53.132;6.408;2023-03-17T06:26:40;8.57;;;4.50;;
59207;SDS011;44977;53.132;6.408;2023-03-17T06:31:42;8.60;;;4.75;;
59207;SDS011;44977;53.132;6.408;2023-03-17T06:36:49;9.13;;;4.97;;
59207;SDS011;44977;53.132;6.408;2023-03-17T06:41:50;8.35;;;4.75;;
59207;SDS011;44977;53.132;6.408;2023-03-17T06:46:50;8.45;;;4.90;;
59207;SDS011;44977;53.132;6.408;2023-03-17T06:51:51;8.77;;;4.72;;
59207;SDS011;44977;53.132;6.408;2023-03-17T06:56:53;8.68;;;5.07;;
59207;SDS011;44977;53.132;6.408;2023-03-17T07:01:56;9.23;;;5.18;;
59207;SDS011;44977;53.132;6.408;2023-03-17T07:06:58;8.63;;;5.03;;
59207;SDS011;44977;53.132;6.408;2023-03-17T07:11:59;8.80;;;4.88;;
59207;SDS011;44977;53.132;6.408;2023-03-17T07:17:04;8.60;;;4.60;;
59207;SDS011;44977;53.132;6.408;2023-03-17T07:22:05;8.35;;;4.68;;
59207;SDS011;44977;53.132;6.408;2023-03-17T07:27:07;9.40;;;4.93;;
59207;SDS011;44977;53.132;6.408;2023-03-17T07:32:09;8.50;;;4.95;;
59207;SDS011;44977;53.132;6.408;2023-03-17T07:37:10;8.77;;;5.13;;
59207;SDS011;44977;53.132;6.408;2023-03-17T07:42:12;8.10;;;4.85;;
59207;SDS011;44977;53.132;6.408;2023-03-17T07:47:14;8.73;;;4.88;;
59207;SDS011;44977;53.132;6.408;2023-03-17T07:52:15;8.63;;;4.35;;
59207;SDS011;44977;53.132;6.408;2023-03-17T07:57:16;8.80;;;4.85;;
59207;SDS011;44977;53.132;6.408;2023-03-17T08:02:17;9.38;;;4.60;;
59207;SDS011;44977;53.132;6.408;2023-03-17T08:07:20;7.35;;;4.47;;
59207;SDS011;44977;53.132;6.408;2023-03-17T08:12:20;8.65;;;5.00;;
59207;SDS011;44977;53.132;6.408;2023-03-17T08:17:21;8.10;;;4.90;;
59207;SDS011;44977;53.132;6.408;2023-03-17T08:22:26;9.05;;;5.10;;
59207;SDS011;44977;53.132;6.408;2023-03-17T08:27:26;7.43;;;4.50;;
59207;SDS011;44977;53.132;6.408;2023-03-17T08:32:27;7.63;;;4.47;;
59207;SDS011;44977;53.132;6.408;2023-03-17T08:37:28;9.20;;;4.97;;
59207;SDS011;44977;53.132;6.408;2023-03-17T08:42:28;12.38;;;4.75;;
59207;SDS011;44977;53.132;6.408;2023-03-17T08:47:29;9.55;;;5.40;;
59207;SDS011;44977;53.132;6.408;2023-03-17T08:52:30;8.82;;;4.28;;
59207;SDS011;44977;53.132;6.408;2023-03-17T08:57:31;7.68;;;4.25;;
59207;SDS011;44977;53.132;6.408;2023-03-17T09:02:32;8.23;;;4.65;;
59207;SDS011;44977;53.132;6.408;2023-03-17T09:07:33;7.85;;;4.10;;
59207;SDS011;44977;53.132;6.408;2023-03-17T09:12:36;8.73;;;4.32;;
59207;SDS011;44977;53.132;6.408;2023-03-17T09:17:37;8.13;;;4.13;;
59207;SDS011;44977;53.132;6.408;2023-03-17T09:22:38;7.70;;;4.43;;
59207;SDS011;44977;53.132;6.408;2023-03-17T09:27:38;8.30;;;4.18;;
59207;SDS011;44977;53.132;6.408;2023-03-17T09:32:39;8.02;;;4.00;;
59207;SDS011;44977;53.132;6.408;2023-03-17T09:37:40;9.07;;;4.70;;
59207;SDS011;44977;53.132;6.408;2023-03-17T09:53:29;7.68;;;4.03;;
59207;SDS011;44977;53.132;6.408;2023-03-17T09:58:56;8.50;;;4.05;;
59207;SDS011;44977;53.132;6.408;2023-03-17T10:03:58;7.43;;;4.25;;
59207;SDS011;44977;53.132;6.408;2023-03-17T10:09:04;8.63;;;4.53;;
59207;SDS011;44977;53.132;6.408;2023-03-17T10:14:26;7.80;;;4.18;;
59207;SDS011;44977;53.132;6.408;2023-03-17T10:19:34;9.13;;;4.55;;
59207;SDS011;44977;53.132;6.408;2023-03-17T10:24:46;7.65;;;4.55;;
59207;SDS011;44977;53.132;6.408;2023-03-17T10:29:51;9.10;;;4.50;;
59207;SDS011;44977;53.132;6.408;2023-03-17T10:34:52;7.63;;;3.97;;
59207;SDS011;44977;53.132;6.408;2023-03-17T10:39:55;9.40;;;4.65;;
59207;SDS011;44977;53.132;6.408;2023-03-17T10:44:57;8.45;;;4.55;;
59207;SDS011;44977;53.132;6.408;2023-03-17T10:50:17;8.70;;;4.60;;
59207;SDS011;44977;53.132;6.408;2023-03-17T10:55:21;8.35;;;4.30;;
59207;SDS011;44977;53.132;6.408;2023-03-17T11:00:25;7.75;;;4.50;;
59207;SDS011;44977;53.132;6.408;2023-03-17T11:10:35;8.82;;;4.85;;
59207;SDS011;44977;53.132;6.408;2023-03-17T11:16:39;7.93;;;4.45;;
59207;SDS011;44977;53.132;6.408;2023-03-17T11:21:23;8.95;;;4.80;;
59207;SDS011;44977;53.132;6.408;2023-03-17T11:37:36;10.15;;;5.90;;
59207;SDS011;44977;53.132;6.408;2023-03-17T11:49:17;11.25;;;6.47;;
59207;SDS011;44977;53.132;6.408;2023-03-17T11:55:22;9.05;;;6.10;;
59207;SDS011;44977;53.132;6.408;2023-03-17T12:10:17;9.95;;;6.90;;
59207;SDS011;44977;53.132;6.408;2023-03-17T12:15:26;11.00;;;6.43;;
59207;SDS011;44977;53.132;6.408;2023-03-17T12:20:32;11.32;;;7.30;;
59207;SDS011;44977;53.132;6.408;2023-03-17T12:31:09;9.90;;;6.63;;
59207;SDS011;44977;53.132;6.408;2023-03-17T12:36:14;10.85;;;6.95;;
59207;SDS011;44977;53.132;6.408;2023-03-17T12:46:40;10.65;;;6.57;;
59207;SDS011;44977;53.132;6.408;2023-03-17T12:56:59;10.27;;;7.43;;
59207;SDS011;44977;53.132;6.408;2023-03-17T13:07:45;9.98;;;6.97;;
59207;SDS011;44977;53.132;6.408;2023-03-17T13:23:19;11.30;;;7.35;;
59207;SDS011;44977;53.132;6.408;2023-03-17T13:33:53;11.50;;;7.15;;
59207;SDS011;44977;53.132;6.408;2023-03-17T13:49:33;12.40;;;7.75;;
59207;SDS011;44977;53.132;6.408;2023-03-17T13:54:48;12.27;;;7.75;;
59207;SDS011;44977;53.132;6.408;2023-03-17T13:59:59;11.80;;;7.28;;
59207;SDS011;44977;53.132;6.408;2023-03-17T14:05:25;11.82;;;7.75;;
59207;SDS011;44977;53.132;6.408;2023-03-17T14:10:30;10.55;;;7.22;;
59207;SDS011;44977;53.132;6.408;2023-03-17T14:15:45;10.52;;;7.60;;
59207;SDS011;44977;53.132;6.408;2023-03-17T14:20:52;11.20;;;7.32;;
59207;SDS011;44977;53.132;6.408;2023-03-17T14:25:58;10.88;;;7.13;;
59207;SDS011;44977;53.132;6.408;2023-03-17T14:31:04;12.27;;;7.85;;
59207;SDS011;44977;53.132;6.408;2023-03-17T14:36:07;10.63;;;7.20;;
59207;SDS011;44977;53.132;6.408;2023-03-17T14:56:24;11.98;;;7.90;;
59207;SDS011;44977;53.132;6.408;2023-03-17T15:01:32;12.77;;;7.43;;
59207;SDS011;44977;53.132;6.408;2023-03-17T15:12:03;12.65;;;7.63;;
59207;SDS011;44977;53.132;6.408;2023-03-17T15:17:13;11.90;;;8.00;;
59207;SDS011;44977;53.132;6.408;2023-03-17T15:22:21;12.20;;;7.88;;
59207;SDS011;44977;53.132;6.408;2023-03-17T15:27:24;12.50;;;8.20;;
59207;SDS011;44977;53.132;6.408;2023-03-17T15:32:27;11.63;;;8.20;;
59207;SDS011;44977;53.132;6.408;2023-03-17T15:37:31;10.75;;;7.80;;
59207;SDS011;44977;53.132;6.408;2023-03-17T15:42:33;10.95;;;7.88;;
59207;SDS011;44977;53.132;6.408;2023-03-17T15:47:39;12.87;;;8.30;;
59207;SDS011;44977;53.132;6.408;2023-03-17T15:52:41;11.82;;;8.85;;
59207;SDS011;44977;53.132;6.408;2023-03-17T15:57:43;13.18;;;9.27;;
59207;SDS011;44977;53.132;6.408;2023-03-17T16:02:44;12.32;;;8.80;;
59207;SDS011;44977;53.132;6.408;2023-03-17T16:07:47;10.95;;;8.32;;
59207;SDS011;44977;53.132;6.408;2023-03-17T16:12:48;11.57;;;8.05;;
59207;SDS011;44977;53.132;6.408;2023-03-17T16:17:50;11.85;;;8.70;;
59207;SDS011;44977;53.132;6.408;2023-03-17T16:22:54;13.63;;;9.07;;
59207;SDS011;44977;53.132;6.408;2023-03-17T16:27:57;11.90;;;9.48;;
59207;SDS011;44977;53.132;6.408;2023-03-17T16:33:00;12.20;;;8.63;;
59207;SDS011;44977;53.132;6.408;2023-03-17T16:38:02;11.95;;;8.73;;
59207;SDS011;44977;53.132;6.408;2023-03-17T16:43:10;11.32;;;8.43;;
59207;SDS011;44977;53.132;6.408;2023-03-17T16:48:18;12.88;;;8.75;;
59207;SDS011;44977;53.132;6.408;2023-03-17T16:53:19;12.07;;;9.02;;
59207;SDS011;44977;53.132;6.408;2023-03-17T16:58:24;12.40;;;8.25;;
59207;SDS011;44977;53.132;6.408;2023-03-17T17:03:30;10.57;;;7.75;;
59207;SDS011;44977;53.132;6.408;2023-03-17T17:08:31;11.43;;;8.10;;
59207;SDS011;44977;53.132;6.408;2023-03-17T17:13:32;10.70;;;7.47;;
59207;SDS011;44977;53.132;6.408;2023-03-17T17:18:32;11.15;;;8.02;;
59207;SDS011;44977;53.132;6.408;2023-03-17T17:23:33;11.02;;;7.85;;
59207;SDS011;44977;53.132;6.408;2023-03-17T17:28:34;11.93;;;7.22;;
59207;SDS011;44977;53.132;6.408;2023-03-17T17:33:35;10.68;;;7.28;;
59207;SDS011;44977;53.132;6.408;2023-03-17T17:38:36;11.27;;;7.10;;
59207;SDS011;44977;53.132;6.408;2023-03-17T17:43:37;12.15;;;7.97;;
59207;SDS011;44977;53.132;6.408;2023-03-17T17:48:38;12.38;;;8.18;;
59207;SDS011;44977;53.132;6.408;2023-03-17T17:53:39;12.57;;;7.95;;
59207;SDS011;44977;53.132;6.408;2023-03-17T17:58:40;11.45;;;7.65;;
59207;SDS011;44977;53.132;6.408;2023-03-17T18:03:41;11.68;;;7.80;;
59207;SDS011;44977;53.132;6.408;2023-03-17T18:08:42;11.95;;;8.60;;
59207;SDS011;44977;53.132;6.408;2023-03-17T18:13:43;14.55;;;9.32;;
59207;SDS011;44977;53.132;6.408;2023-03-17T18:18:44;11.88;;;8.50;;
59207;SDS011;44977;53.132;6.408;2023-03-17T18:23:46;11.20;;;8.50;;
59207;SDS011;44977;53.132;6.408;2023-03-17T18:28:48;12.02;;;8.75;;
59207;SDS011;44977;53.132;6.408;2023-03-17T18:33:50;13.45;;;8.38;;
59207;SDS011;44977;53.132;6.408;2023-03-17T18:38:55;12.95;;;9.25;;
59207;SDS011;44977;53.132;6.408;2023-03-17T18:43:55;15.98;;;10.68;;
59207;SDS011;44977;53.132;6.408;2023-03-17T18:48:56;18.88;;;13.70;;
59207;SDS011;44977;53.132;6.408;2023-03-17T18:53:57;16.38;;;12.27;;
59207;SDS011;44977;53.132;6.408;2023-03-17T18:58:57;18.75;;;15.27;;
59207;SDS011;44977;53.132;6.408;2023-03-17T19:03:59;17.95;;;14.48;;
59207;SDS011;44977;53.132;6.408;2023-03-17T19:09:00;16.27;;;13.13;;
59207;SDS011;44977;53.132;6.408;2023-03-17T19:14:01;18.15;;;14.35;;
59207;SDS011;44977;53.132;6.408;2023-03-17T19:19:02;20.23;;;15.30;;
59207;SDS011;44977;53.132;6.408;2023-03-17T19:24:03;17.50;;;13.93;;
59207;SDS011;44977;53.132;6.408;2023-03-17T19:29:04;16.17;;;13.38;;
59207;SDS011;44977;53.132;6.408;2023-03-17T19:34:06;19.02;;;13.77;;
59207;SDS011;44977;53.132;6.408;2023-03-17T19:39:08;14.50;;;12.05;;
59207;SDS011;44977;53.132;6.408;2023-03-17T19:44:09;15.63;;;12.48;;
59207;SDS011;44977;53.132;6.408;2023-03-17T19:49:10;17.63;;;12.77;;
59207;SDS011;44977;53.132;6.408;2023-03-17T19:54:11;15.45;;;12.20;;
59207;SDS011;44977;53.132;6.408;2023-03-17T19:59:12;26.20;;;21.10;;
59207;SDS011;44977;53.132;6.408;2023-03-17T20:04:14;29.58;;;25.20;;
59207;SDS011;44977;53.132;6.408;2023-03-17T20:09:21;23.00;;;19.88;;
59207;SDS011;44977;53.132;6.408;2023-03-17T20:14:23;19.10;;;16.52;;
59207;SDS011;44977;53.132;6.408;2023-03-17T20:19:24;22.02;;;19.73;;
59207;SDS011;44977;53.132;6.408;2023-03-17T20:24:25;22.25;;;19.88;;
59207;SDS011;44977;53.132;6.408;2023-03-17T20:29:28;22.63;;;20.13;;
59207;SDS011;44977;53.132;6.408;2023-03-17T20:34:29;22.88;;;19.90;;
59207;SDS011;44977;53.132;6.408;2023-03-17T20:39:30;22.80;;;19.02;;
59207;SDS011;44977;53.132;6.408;2023-03-17T20:44:31;22.02;;;19.63;;
59207;SDS011;44977;53.132;6.408;2023-03-17T20:49:32;20.27;;;18.08;;
59207;SDS011;44977;53.132;6.408;2023-03-17T20:54:33;21.70;;;19.42;;
59207;SDS011;44977;53.132;6.408;2023-03-17T20:59:33;21.42;;;19.13;;
59207;SDS011;44977;53.132;6.408;2023-03-17T21:04:35;20.23;;;17.90;;
59207;SDS011;44977;53.132;6.408;2023-03-17T21:09:36;17.55;;;15.25;;
59207;SDS011;44977;53.132;6.408;2023-03-17T21:14:36;24.30;;;19.25;;
59207;SDS011;44977;53.132;6.408;2023-03-17T21:19:38;24.58;;;21.50;;
59207;SDS011;44977;53.132;6.408;2023-03-17T21:24:39;19.67;;;16.60;;
59207;SDS011;44977;53.132;6.408;2023-03-17T21:29:39;18.10;;;15.02;;
59207;SDS011;44977;53.132;6.408;2023-03-17T21:34:40;17.05;;;13.48;;
59207;SDS011;44977;53.132;6.408;2023-03-17T21:39:41;16.48;;;13.52;;
59207;SDS011;44977;53.132;6.408;2023-03-17T21:44:42;15.10;;;12.57;;
59207;SDS011;44977;53.132;6.408;2023-03-17T21:49:44;17.73;;;15.45;;
59207;SDS011;44977;53.132;6.408;2023-03-17T21:54:46;19.35;;;16.30;;
59207;SDS011;44977;53.132;6.408;2023-03-17T21:59:47;20.33;;;16.27;;
59207;SDS011;44977;53.132;6.408;2023-03-17T22:04:48;16.92;;;12.95;;
59207;SDS011;44977;53.132;6.408;2023-03-17T22:09:51;17.25;;;14.70;;
59207;SDS011;44977;53.132;6.408;2023-03-17T22:14:54;20.70;;;17.13;;
59207;SDS011;44977;53.132;6.408;2023-03-17T22:19:57;18.63;;;16.23;;
59207;SDS011;44977;53.132;6.408;2023-03-17T22:24:57;16.38;;;13.20;;
59207;SDS011;44977;53.132;6.408;2023-03-17T22:29:59;16.35;;;12.35;;
59207;SDS011;44977;53.132;6.408;2023-03-17T22:35:00;16.42;;;12.43;;
59207;SDS011;44977;53.132;6.408;2023-03-17T22:40:01;15.88;;;12.15;;
59207;SDS011;44977;53.132;6.408;2023-03-17T22:45:05;17.38;;;12.52;;
59207;SDS011;44977;53.132;6.408;2023-03-17T22:50:06;18.40;;;13.82;;
59207;SDS011;44977;53.132;6.408;2023-03-17T22:55:08;17.45;;;12.73;;
59207;SDS011;44977;53.132;6.408;2023-03-17T23:00:11;16.05;;;11.65;;
59207;SDS011;44977;53.132;6.408;2023-03-17T23:05:15;15.07;;;11.87;;
59207;SDS011;44977;53.132;6.408;2023-03-17T23:10:17;14.50;;;12.15;;
59207;SDS011;44977;53.132;6.408;2023-03-17T23:15:22;17.75;;;14.30;;
59207;SDS011;44977;53.132;6.408;2023-03-17T23:20:22;15.15;;;12.30;;
59207;SDS011;44977;53.132;6.408;2023-03-17T23:25:24;15.07;;;12.05;;
59207;SDS011;44977;53.132;6.408;2023-03-17T23:30:24;15.80;;;12.75;;
59207;SDS011;44977;53.132;6.408;2023-03-17T23:35:25;16.63;;;11.88;;
59207;SDS011;44977;53.132;6.408;2023-03-17T23:40:26;16.00;;;11.65;;
59207;SDS011;44977;53.132;6.408;2023-03-17T23:45:27;15.32;;;11.40;;
59207;SDS011;44977;53.132;6.408;2023-03-17T23:50:28;13.65;;;10.80;;
59207;SDS011;44977;53.132;6.408;2023-03-17T23:55:30;16.17;;;10.80;;
